createdAt,value
2019-04-01T00:00:04.269Z,1021.11
2019-04-01T00:10:02.980Z,1021.06
2019-04-01T00:20:03.635Z,1021.04
2019-04-01T00:30:04.075Z,1020.99
2019-04-01T00:40:03.542Z,1020.94
2019-04-01T00:50:03.241Z,1020.94
2019-04-01T01:00:03.650Z,1020.90
2019-04-01T01:10:03.193Z,1020.88
2019-04-01T01:20:02.770Z,1020.87
2019-04-01T01:30:04.592Z,1020.86
2019-04-01T01:40:02.905Z,1020.84
2019-04-01T01:50:03.384Z,1020.88
2019-04-01T02:00:04.406Z,1021.00
2019-04-01T02:10:03.582Z,1020.96
2019-04-01T02:20:03.247Z,1021.01
2019-04-01T02:30:04.131Z,1020.96
2019-04-01T02:40:03.247Z,1020.88
2019-04-01T02:50:03.038Z,1020.92
2019-04-01T03:00:04.212Z,1020.94
2019-04-01T03:10:03.029Z,1020.89
2019-04-01T03:20:03.527Z,1020.84
2019-04-01T03:30:04.016Z,1020.87
2019-04-01T03:40:03.409Z,1020.91
2019-04-01T03:50:03.022Z,1020.91
2019-04-01T04:00:04.225Z,1020.94
2019-04-01T04:10:03.179Z,1020.96
2019-04-01T04:20:03.731Z,1021.00
2019-04-01T04:30:04.758Z,1021.02
2019-04-01T04:40:03.576Z,1021.01
2019-04-01T04:50:03.592Z,1021.01
2019-04-01T05:00:04.122Z,1020.98
2019-04-01T05:10:04.157Z,1021.01
2019-04-01T05:20:02.950Z,1021.08
2019-04-01T05:30:04.438Z,1021.03
2019-04-01T05:40:03.017Z,1021.07
2019-04-01T05:50:03.980Z,1021.10
2019-04-01T06:00:03.567Z,1021.12
2019-04-01T06:10:03.043Z,1021.24
2019-04-01T06:20:03.758Z,1021.20
2019-04-01T06:30:04.177Z,1021.16
2019-04-01T06:40:02.885Z,1021.14
2019-04-01T06:50:03.479Z,1021.22
2019-04-01T07:00:03.974Z,1021.17
2019-04-01T07:10:03.593Z,1021.10
2019-04-01T07:20:03.404Z,1021.12
2019-04-01T07:30:04.382Z,1021.12
2019-04-01T07:40:03.616Z,1021.11
2019-04-01T07:50:03.398Z,1021.10
2019-04-01T08:00:04.334Z,1021.10
2019-04-01T08:10:03.283Z,1021.14
2019-04-01T08:20:03.132Z,1021.02
2019-04-01T08:30:03.782Z,1021.08
2019-04-01T08:40:03.442Z,1021.14
2019-04-01T08:50:03.133Z,1021.10
2019-04-01T09:00:03.714Z,1021.00
2019-04-01T09:10:03.035Z,1020.95
2019-04-01T09:20:03.622Z,1020.93
2019-04-01T09:30:03.832Z,1020.89
2019-04-01T09:40:03.675Z,1020.81
2019-04-01T09:50:03.805Z,1020.79
2019-04-01T10:00:05.986Z,1020.71
2019-04-01T10:10:03.499Z,1020.74
2019-04-01T10:20:03.884Z,1020.67
2019-04-01T10:30:03.988Z,1020.69
2019-04-01T10:40:04.197Z,1020.43
2019-04-01T10:50:03.726Z,1020.48
2019-04-01T11:00:04.207Z,1020.48
2019-04-01T11:10:02.810Z,1020.26
2019-04-01T11:20:04.321Z,1020.14
2019-04-01T11:30:04.537Z,1019.92
2019-04-01T11:40:03.844Z,1020.04
2019-04-01T11:50:03.430Z,1019.89
2019-04-01T12:00:04.445Z,1019.73
2019-04-01T12:10:07.828Z,1019.61
2019-04-01T12:20:04.724Z,1019.48
2019-04-01T12:30:04.043Z,1019.31
2019-04-01T12:40:03.413Z,1019.16
2019-04-01T12:50:03.592Z,1019.07
2019-04-01T13:00:05.148Z,1018.99
2019-04-01T13:10:04.096Z,1018.87
2019-04-01T13:20:03.345Z,1018.84
2019-04-01T13:30:03.856Z,1018.79
2019-04-01T13:40:04.214Z,1018.68
2019-04-01T13:50:04.456Z,1018.40
2019-04-01T14:00:04.165Z,1018.38
2019-04-01T14:10:03.739Z,1018.26
2019-04-01T14:20:03.764Z,1018.15
2019-04-01T14:30:03.867Z,1018.07
2019-04-01T14:40:04.296Z,1017.97
2019-04-01T14:50:08.154Z,1017.93
2019-04-01T15:00:04.466Z,1017.83
2019-04-01T15:10:03.133Z,1017.71
2019-04-01T15:20:03.193Z,1017.60
2019-04-01T15:30:03.551Z,1017.46
2019-04-01T15:40:03.283Z,1017.46
2019-04-01T15:50:03.341Z,1017.36
2019-04-01T16:00:04.451Z,1017.34
2019-04-01T16:10:03.052Z,1017.25
2019-04-01T16:20:03.686Z,1017.32
2019-04-01T16:30:04.208Z,1017.35
2019-04-01T16:40:06.760Z,1017.35
2019-04-01T16:50:03.151Z,1017.32
2019-04-01T17:00:04.451Z,1017.32
2019-04-01T17:10:05.028Z,1017.31
2019-04-01T17:20:03.586Z,1017.35
2019-04-01T17:30:04.010Z,1017.33
2019-04-01T17:40:03.700Z,1017.40
2019-04-01T17:50:03.162Z,1017.45
2019-04-01T18:00:05.021Z,1017.55
2019-04-01T18:10:03.961Z,1017.52
2019-04-01T18:20:06.091Z,1017.54
2019-04-01T18:30:03.744Z,1017.67
2019-04-01T18:40:03.384Z,1017.68
2019-04-01T18:50:03.808Z,1017.72
2019-04-01T19:00:04.180Z,1017.84
2019-04-01T19:10:07.435Z,1017.86
2019-04-01T19:20:03.140Z,1017.84
2019-04-01T19:30:03.823Z,1017.88
2019-04-01T19:40:03.762Z,1017.92
2019-04-01T19:50:03.729Z,1017.88
2019-04-01T20:00:04.132Z,1017.89
2019-04-01T20:10:05.527Z,1017.88
2019-04-01T20:20:03.636Z,1017.87
2019-04-01T20:30:03.993Z,1017.85
2019-04-01T20:40:03.762Z,1017.81
2019-04-01T20:50:03.121Z,1017.78
2019-04-01T21:00:04.305Z,1017.80
2019-04-01T21:10:04.245Z,1017.73
2019-04-01T21:20:04.238Z,1017.72
2019-04-01T21:30:04.816Z,1017.67
2019-04-01T21:40:03.325Z,1017.70
2019-04-01T21:50:03.733Z,1017.68
2019-04-01T22:00:04.295Z,1017.60
2019-04-01T22:10:04.165Z,1017.52
2019-04-01T22:20:02.866Z,1017.42
2019-04-01T22:30:04.335Z,1017.31
2019-04-01T22:40:03.428Z,1017.26
2019-04-01T22:50:02.891Z,1017.23
2019-04-01T23:00:04.391Z,1017.15
2019-04-01T23:10:02.826Z,1017.08
2019-04-01T23:20:04.570Z,1016.98
2019-04-01T23:30:03.855Z,1016.90
2019-04-01T23:40:04.251Z,1016.85
2019-04-01T23:50:03.681Z,1016.84
